createdAt,value
2019-01-27T00:01:15.904Z,5.54
2019-01-27T00:06:24.490Z,7.24
2019-01-27T00:11:32.866Z,6.72
2019-01-27T00:16:41.541Z,6.88
2019-01-27T00:21:50.004Z,5.57
2019-01-27T00:26:58.640Z,5.62
2019-01-27T00:32:07.182Z,6.37
2019-01-27T00:37:15.838Z,4.67
2019-01-27T00:42:24.480Z,6.61
2019-01-27T00:47:33.183Z,4.52
2019-01-27T00:52:41.541Z,4.47
2019-01-27T00:57:50.238Z,5.52
2019-01-27T01:02:58.575Z,5.06
2019-01-27T01:08:07.318Z,5.53
2019-01-27T01:13:15.866Z,4.54
2019-01-27T01:18:25.874Z,4.66
2019-01-27T01:23:34.234Z,4.79
2019-01-27T01:28:43.280Z,5.19
2019-01-27T01:33:51.690Z,4.65
2019-01-27T01:39:00.333Z,4.82
2019-01-27T01:44:08.843Z,5.30
2019-01-27T01:49:17.931Z,5.65
2019-01-27T01:54:28.409Z,4.08
2019-01-27T01:59:29.154Z,4.25
2019-01-27T02:04:27.838Z,4.95
2019-01-27T02:09:36.199Z,4.45
2019-01-27T02:14:46.071Z,4.53
2019-01-27T02:19:54.541Z,4.00
2019-01-27T02:25:03.392Z,4.04
2019-01-27T02:30:11.733Z,3.93
2019-01-27T02:35:19.313Z,4.30
2019-01-27T02:40:27.631Z,3.34
2019-01-27T02:45:35.039Z,4.26
2019-01-27T02:50:43.492Z,3.33
2019-01-27T02:55:52.333Z,3.62
2019-01-27T03:01:00.797Z,4.81
2019-01-27T03:06:09.555Z,3.21
2019-01-27T03:11:17.945Z,2.88
2019-01-27T03:16:27.670Z,4.27
2019-01-27T03:21:36.012Z,3.01
2019-01-27T03:26:46.723Z,3.71
2019-01-27T03:31:45.063Z,4.67
2019-01-27T03:36:53.463Z,3.42
2019-01-27T03:42:04.058Z,4.16
2019-01-27T03:47:01.012Z,3.41
2019-01-27T03:52:09.952Z,3.11
2019-01-27T03:57:18.325Z,3.22
2019-01-27T04:02:26.948Z,4.16
2019-01-27T04:07:35.326Z,3.66
2019-01-27T04:12:44.099Z,2.98
2019-01-27T04:17:52.544Z,2.92
2019-01-27T04:23:01.251Z,3.35
2019-01-27T04:28:09.602Z,3.34
2019-01-27T04:33:18.327Z,3.57
2019-01-27T04:38:26.911Z,3.34
2019-01-27T04:43:35.574Z,3.85
2019-01-27T04:48:42.533Z,4.46
2019-01-27T04:53:51.312Z,3.75
2019-01-27T04:58:59.745Z,2.72
2019-01-27T05:04:09.580Z,3.03
2019-01-27T05:09:18.121Z,4.21
2019-01-27T05:14:26.834Z,5.02
2019-01-27T05:19:35.256Z,2.99
2019-01-27T05:24:49.044Z,4.10
2019-01-27T05:29:47.488Z,3.16
2019-01-27T05:34:56.221Z,2.69
2019-01-27T05:40:04.660Z,2.71
2019-01-27T05:45:13.131Z,3.11
2019-01-27T05:50:21.540Z,2.95
2019-01-27T05:55:30.314Z,3.50
2019-01-27T06:00:38.678Z,2.35
2019-01-27T06:05:47.205Z,2.86
2019-01-27T06:10:55.575Z,2.51
2019-01-27T06:16:04.317Z,3.37
2019-01-27T06:21:12.694Z,2.59
2019-01-27T06:26:21.478Z,2.20
2019-01-27T06:31:29.833Z,2.01
2019-01-27T06:36:38.725Z,2.48
2019-01-27T06:41:47.132Z,1.94
2019-01-27T06:46:55.587Z,2.44
2019-01-27T06:52:03.953Z,2.48
2019-01-27T06:57:12.686Z,2.16
2019-01-27T07:02:21.028Z,2.55
2019-01-27T07:07:29.748Z,2.47
2019-01-27T07:12:38.166Z,4.88
2019-01-27T07:17:48.913Z,2.65
2019-01-27T07:22:47.212Z,2.26
2019-01-27T07:27:55.803Z,2.01
2019-01-27T07:33:04.645Z,1.45
2019-01-27T07:38:13.045Z,1.92
2019-01-27T07:43:21.960Z,2.47
2019-01-27T07:48:30.393Z,2.63
2019-01-27T07:53:39.159Z,1.85
2019-01-27T07:58:47.617Z,1.99
2019-01-27T08:03:56.406Z,1.86
2019-01-27T08:09:04.791Z,2.66
2019-01-27T08:14:14.197Z,2.07
2019-01-27T08:19:22.737Z,1.75
2019-01-27T08:24:31.358Z,1.59
2019-01-27T08:29:39.736Z,1.42
2019-01-27T08:34:48.397Z,1.98
2019-01-27T08:39:56.991Z,1.59
2019-01-27T08:45:05.646Z,2.02
2019-01-27T08:50:14.198Z,1.59
2019-01-27T08:55:38.154Z,1.95
2019-01-27T09:00:36.721Z,1.73
2019-01-27T09:05:45.176Z,1.65
2019-01-27T09:10:54.130Z,1.94
2019-01-27T09:16:02.524Z,2.32
2019-01-27T09:21:13.686Z,1.79
2019-01-27T09:26:12.061Z,1.56
2019-01-27T09:31:20.732Z,1.60
2019-01-27T09:36:29.372Z,1.55
2019-01-27T09:41:37.881Z,2.45
2019-01-27T09:46:46.703Z,1.68
2019-01-27T09:51:55.386Z,2.42
2019-01-27T09:57:05.251Z,1.26
2019-01-27T10:02:13.618Z,1.69
2019-01-27T10:07:22.085Z,3.03
2019-01-27T10:12:30.510Z,1.24
2019-01-27T10:17:38.948Z,1.60
2019-01-27T10:22:47.444Z,0.84
2019-01-27T10:27:59.188Z,2.24
2019-01-27T10:32:57.704Z,1.53
2019-01-27T10:38:08.998Z,1.33
2019-01-27T10:43:10.715Z,1.92
2019-01-27T10:48:09.300Z,2.13
2019-01-27T10:53:20.948Z,1.53
2019-01-27T10:58:30.705Z,0.97
2019-01-27T11:03:29.145Z,1.10
2019-01-27T11:08:39.473Z,1.71
2019-01-27T11:13:37.900Z,1.31
2019-01-27T11:18:46.244Z,1.21
2019-01-27T11:23:55.153Z,0.99
2019-01-27T11:29:03.806Z,1.13
2019-01-27T11:34:12.759Z,2.56
2019-01-27T11:39:21.517Z,1.93
2019-01-27T11:44:30.873Z,2.26
2019-01-27T11:49:39.318Z,2.36
2019-01-27T11:54:48.282Z,1.76
2019-01-27T11:59:57.096Z,2.31
2019-01-27T12:05:05.974Z,2.68
2019-01-27T12:10:14.357Z,1.29
2019-01-27T12:15:23.218Z,3.03
2019-01-27T12:20:31.686Z,1.75
2019-01-27T12:25:42.693Z,3.28
2019-01-27T12:30:41.595Z,1.43
2019-01-27T12:35:50.017Z,3.93
2019-01-27T12:40:58.729Z,3.83
2019-01-27T12:46:07.210Z,4.30
2019-01-27T12:51:14.485Z,2.43
2019-01-27T12:56:23.138Z,3.86
2019-01-27T13:01:32.345Z,1.78
2019-01-27T13:06:41.171Z,1.86
2019-01-27T13:11:49.285Z,2.68
2019-01-27T13:16:58.302Z,3.68
2019-01-27T13:22:06.728Z,3.88
2019-01-27T13:27:15.814Z,3.51
2019-01-27T13:32:24.156Z,3.06
2019-01-27T13:37:33.549Z,5.32
2019-01-27T13:42:41.969Z,3.24
2019-01-27T13:47:51.055Z,2.46
2019-01-27T13:52:59.493Z,3.17
2019-01-27T13:58:08.446Z,2.68
2019-01-27T14:03:17.031Z,5.52
2019-01-27T14:08:27.173Z,3.93
2019-01-27T14:13:33.976Z,5.00
2019-01-27T14:18:42.818Z,3.60
2019-01-27T14:23:51.157Z,3.42
2019-01-27T14:29:01.168Z,3.19
2019-01-27T14:33:59.564Z,3.98
2019-01-27T14:39:07.938Z,3.37
2019-01-27T14:44:16.801Z,4.54
2019-01-27T14:49:25.452Z,2.44
2019-01-27T14:54:34.856Z,2.73
2019-01-27T14:59:43.262Z,2.73
2019-01-27T15:05:27.633Z,3.52
2019-01-27T15:10:26.614Z,3.44
2019-01-27T15:15:35.999Z,3.22
2019-01-27T15:20:44.891Z,3.18
2019-01-27T15:25:54.240Z,1.65
2019-01-27T15:31:03.314Z,1.30
2019-01-27T15:36:12.110Z,2.78
2019-01-27T15:41:21.168Z,3.01
2019-01-27T15:46:30.378Z,1.83
2019-01-27T15:51:39.340Z,2.38
2019-01-27T15:56:48.735Z,2.05
2019-01-27T16:01:57.741Z,1.84
2019-01-27T16:07:07.003Z,2.86
2019-01-27T16:12:16.260Z,2.41
2019-01-27T16:17:24.689Z,2.73
2019-01-27T16:22:33.929Z,4.36
2019-01-27T16:27:43.080Z,4.09
2019-01-27T16:32:52.397Z,3.26
2019-01-27T16:38:01.365Z,2.97
2019-01-27T16:43:10.866Z,2.31
2019-01-27T16:48:19.921Z,1.73
2019-01-27T16:53:29.314Z,1.93
2019-01-27T16:58:38.419Z,3.10
2019-01-27T17:03:47.737Z,2.48
2019-01-27T17:08:56.665Z,1.43
2019-01-27T17:14:05.369Z,2.01
2019-01-27T17:19:14.355Z,2.74
2019-01-27T17:24:23.657Z,3.10
2019-01-27T17:29:32.543Z,2.09
2019-01-27T17:34:41.792Z,3.62
2019-01-27T17:39:50.314Z,3.14
2019-01-27T17:44:59.170Z,1.75
2019-01-27T17:50:07.603Z,2.37
2019-01-27T17:55:16.870Z,3.57
2019-01-27T18:00:26.083Z,3.72
2019-01-27T18:05:35.264Z,4.67
2019-01-27T18:10:44.097Z,3.08
2019-01-27T18:15:53.312Z,2.27
2019-01-27T18:21:01.644Z,2.66
2019-01-27T18:26:10.941Z,4.26
2019-01-27T18:31:19.375Z,2.81
2019-01-27T18:36:28.734Z,2.46
2019-01-27T18:41:37.200Z,2.30
2019-01-27T18:46:46.149Z,0.79
2019-01-27T18:51:54.578Z,1.14
2019-01-27T18:57:04.242Z,0.75
2019-01-27T19:02:13.145Z,1.51
2019-01-27T19:07:19.857Z,0.89
2019-01-27T19:12:28.574Z,0.52
2019-01-27T19:17:37.169Z,0.43
2019-01-27T19:22:44.649Z,0.71
2019-01-27T19:27:53.040Z,0.76
2019-01-27T19:33:01.730Z,1.50
2019-01-27T19:38:10.234Z,1.28
2019-01-27T19:43:18.904Z,1.77
2019-01-27T19:48:27.340Z,1.57
2019-01-27T19:53:36.277Z,3.72
2019-01-27T19:58:44.654Z,4.44
2019-01-27T20:03:53.524Z,2.75
2019-01-27T20:09:01.916Z,3.22
2019-01-27T20:14:10.624Z,1.99
2019-01-27T20:19:19.145Z,2.72
2019-01-27T20:24:28.094Z,2.41
2019-01-27T20:29:35.129Z,3.15
2019-01-27T20:34:43.911Z,2.62
2019-01-27T20:39:52.326Z,4.88
2019-01-27T20:45:03.200Z,3.54
2019-01-27T20:50:01.607Z,7.10
2019-01-27T20:55:10.020Z,4.63
2019-01-27T21:00:18.865Z,3.80
2019-01-27T21:05:27.283Z,5.51
2019-01-27T21:10:35.990Z,4.39
2019-01-27T21:15:44.560Z,3.46
2019-01-27T21:20:53.842Z,3.69
2019-01-27T21:26:01.367Z,5.42
2019-01-27T21:31:10.333Z,4.41
2019-01-27T21:36:18.783Z,3.13
2019-01-27T21:41:27.184Z,4.12
2019-01-27T21:46:38.646Z,3.77
2019-01-27T21:51:37.055Z,5.54
2019-01-27T21:56:46.011Z,6.72
2019-01-27T22:01:54.607Z,6.29
2019-01-27T22:07:03.411Z,6.76
2019-01-27T22:12:11.831Z,5.80
2019-01-27T22:17:20.596Z,4.45
2019-01-27T22:22:28.988Z,5.16
2019-01-27T22:27:36.479Z,4.49
2019-01-27T22:32:44.931Z,4.38
2019-01-27T22:37:53.939Z,3.25
2019-01-27T22:43:02.311Z,3.16
2019-01-27T22:48:10.708Z,4.38
2019-01-27T22:53:20.524Z,2.86
2019-01-27T22:58:28.886Z,2.75
2019-01-27T23:03:37.771Z,4.18
2019-01-27T23:08:46.462Z,3.40
2019-01-27T23:13:56.168Z,3.39
2019-01-27T23:19:06.509Z,3.83
2019-01-27T23:24:05.160Z,3.24
2019-01-27T23:29:13.572Z,3.19
2019-01-27T23:34:22.253Z,5.13
2019-01-27T23:39:30.650Z,3.12
2019-01-27T23:44:39.687Z,3.06
2019-01-27T23:49:48.111Z,3.72
2019-01-27T23:54:56.856Z,4.69
